Crescent City, California
Current Conditions -  °F | °C
As of 4:56 PM on Friday 28 Nov 2014 (Local Time) from KCEC Reporting Station
Haze Haze  
Wind Chill: 58°   Ceiling: 700
Heat Index: 58°   Visibility: 4mi
Dew Point: 57°   Wind: 14mph
Humidity: 97%   Direction: 200°SSW
Pressure: 29.75"   Gusts: NA
Location:  41.74°N, 124.16°W
Report Text: KCEC 290056Z AUTO 20012KT 4SM BR OVC007 14/14 A2975 RMK AO2 SLP076 T01440139
Loading
Personal Weather Stations






























Interactive Weather Map New forecast layout! Learn more

10-Day Weather Forecast

Advertisements
Track Severe Weather on mobile